Bartlett, Kansas
Current Conditions -  °F | °C
As of 1:52 AM on Tuesday 27 Jan 2015 (Local Time) from KCFV Reporting Station
Clear Clear  
Wind Chill: 33°   Ceiling: Unl
Heat Index: 37°   Visibility: 10mi
Dew Point: 32°   Wind: 5mph
Humidity: 82%   Direction: 330°NNW
Pressure: 30.07"   Gusts: NA
Location:  37.05°N, 95.21°W
Report Text: KCFV 270752Z AUTO 33004KT 10SM CLR 03/00 A3007 RMK AO2 SLP184 T00280000
Loading
Personal Weather Stations






























Interactive Weather Map New forecast layout! Learn more

10-Day Weather Forecast

Advertisements
Track Severe Weather on mobile